Magrathea — 2CSP2 — position and weather

sailwx.info

Track history (hours):
 
Tides and Currents Weather Stations Pressure Air Temp Water Temp Dewpoint Dewpoint Depression Visibility Wind Speed Wind Dir Waves Ship Positions

Magrathea

Last reported at 2017-Dec-26 18:02 UTC. Time now 2018-Jan-21 16:22 UTC.
Position N 26°45' W 080°03'.
Warning: this ship's position is 25 days out of date.

Length 22 m.

Type: Sailing vessel. MMSI: 235075418.

Date/timePositionNaut miles runAvg speedWind from/ knotsBaromVisibWave heightAir tempDewpointWater temp
2017-Dec-26 18:02N 26°45' W 080°03'0 0.1
2017-Dec-26 17:59N 26°45' W 080°03'0 0.0
2017-Dec-26 17:30N 26°45' W 080°03'2 3.7
2017-Dec-26 17:00N 26°46' W 080°02'9 8.5
2017-Dec-26 15:59N 26°38' W 080°00'4 7.6
2017-Dec-26 15:30N 26°41' W 080°01'4 8.2
2017-Dec-26 15:00N 26°45' W 080°01'1 2.7
2017-Dec-26 14:30N 26°45' W 080°03'0 0.4
2017-Dec-26 13:58N 26°45' W 080°03'0 0.0
2017-Dec-26 13:28N 26°45' W 080°03'0 0.0
2017-Dec-26 12:58N 26°45' W 080°03'0 0.0
2017-Dec-26 12:28N 26°45' W 080°03'  
Track history (hours):
 
Tides and Currents Weather Stations Pressure Air Temp Water Temp Dewpoint Dewpoint Depression Visibility Wind Speed Wind Dir Waves Ship Positions

Magrathea

Last reported at 2017-Dec-26 18:02 UTC. Time now 2018-Jan-21 16:22 UTC.
Position N 26°45' W 080°03'.
Warning: this ship's position is 25 days out of date.

Length 22 m.

Type: Sailing vessel. MMSI: 235075418.

Date/timePositionNaut miles runAvg speedWind from/ knotsBaromVisibWave heightAir tempDewpointWater temp
2017-Dec-26 18:02N 26°45' W 080°03'0 0.1
2017-Dec-26 17:59N 26°45' W 080°03'0 0.0
2017-Dec-26 17:30N 26°45' W 080°03'2 3.7
2017-Dec-26 17:00N 26°46' W 080°02'9 8.5
2017-Dec-26 15:59N 26°38' W 080°00'4 7.6
2017-Dec-26 15:30N 26°41' W 080°01'4 8.2
2017-Dec-26 15:00N 26°45' W 080°01'1 2.7
2017-Dec-26 14:30N 26°45' W 080°03'0 0.4
2017-Dec-26 13:58N 26°45' W 080°03'0 0.0
2017-Dec-26 13:28N 26°45' W 080°03'0 0.0
2017-Dec-26 12:58N 26°45' W 080°03'0 0.0
2017-Dec-26 12:28N 26°45' W 080°03'  

Dump ship's entire track history